Time;durP1;ratioP1;P1;durP2;ratioP2;P2;SDS_P1;SDS_P2;PMS_P1;PMS_P2;Temp;Humidity;BMP_temperature;BMP_pressure;BME280_temperature;BME280_humidity;BME280_pressure;Samples;Min_cycle;Max_cycle;Signal;HPM_P1;HPM_P2
2021/12/14 00:01:31;;;;;;;;;7.25;6.00;;;;;20.86;40.56;102407.03;5083712;27;51503;-45
2021/12/14 00:04:02;;;;;;;;;9.50;7.25;;;;;20.84;40.28;102411.84;5085460;27;51396;-45
2021/12/14 00:06:27;;;;;;;;;6.50;5.25;;;;;20.82;40.46;102403.75;5082696;27;50961;-44
2021/12/14 00:08:59;;;;;;;;;7.00;6.25;;;;;20.80;40.62;102402.25;5089257;27;51084;-45
2021/12/14 00:16:36;;;;;;;;;5.75;4.00;;;;;20.73;40.46;102386.47;5087532;27;51315;-44
2021/12/14 00:19:02;;;;;;;;;5.75;4.75;;;;;20.73;40.55;102377.34;5085741;27;51170;-44
2021/12/14 00:21:30;;;;;;;;;6.75;4.50;;;;;20.70;40.38;102373.06;5083135;27;51041;-45
2021/12/14 00:24:10;;;;;;;;;6.00;6.00;;;;;20.70;40.54;102381.34;5087008;27;51073;-47
2021/12/14 00:26:47;;;;;;;;;5.00;5.00;;;;;20.67;40.09;102403.75;5088348;27;51149;-47
2021/12/14 00:29:20;;;;;;;;;5.75;5.75;;;;;20.67;40.20;102405.66;5079252;27;51654;-44
2021/12/14 00:31:47;;;;;;;;;5.25;5.00;;;;;20.66;40.14;102396.53;5091462;27;51360;-44
2021/12/14 00:34:21;;;;;;;;;6.00;6.00;;;;;20.65;40.30;102396.72;5089061;27;51061;-44
2021/12/14 00:36:47;;;;;;;;;4.75;4.00;;;;;20.64;40.19;102386.75;5088080;27;51722;-44
2021/12/14 00:39:12;;;;;;;;;6.75;4.75;;;;;20.62;40.83;102373.16;5085507;27;50887;-45
2021/12/14 00:41:39;;;;;;;;;4.25;3.50;;;;;20.58;40.48;102366.31;5088210;27;51135;-45
2021/12/14 00:44:06;;;;;;;;;3.25;3.25;;;;;20.60;40.25;102385.41;5086440;27;51239;-51
2021/12/14 00:46:33;;;;;;;;;3.75;3.25;;;;;20.58;40.48;102395.75;5089865;27;51051;-43
2021/12/14 00:48:59;;;;;;;;;5.50;5.25;;;;;20.56;40.71;102386.81;5086438;27;51885;-44
2021/12/14 00:51:28;;;;;;;;;7.75;5.25;;;;;20.56;40.49;102378.56;5078147;27;51134;-44
2021/12/14 00:53:56;;;;;;;;;5.00;4.00;;;;;20.54;40.84;102370.50;5084061;27;51138;-47
2021/12/14 00:56:21;;;;;;;;;7.75;5.00;;;;;20.54;40.60;102372.41;5084217;27;51371;-44
2021/12/14 00:58:47;;;;;;;;;4.25;3.50;;;;;20.52;40.51;102378.06;5077337;27;51584;-45
2021/12/14 01:01:27;;;;;;;;;4.00;4.00;;;;;20.50;40.95;102380.16;5089011;27;50907;-49
2021/12/14 01:03:58;;;;;;;;;5.00;5.00;;;;;20.49;40.42;102394.97;5092252;27;51053;-44
2021/12/14 01:06:28;;;;;;;;;6.00;4.00;;;;;20.49;40.55;102386.69;5088329;27;51240;-47
2021/12/14 01:08:55;;;;;;;;;5.25;5.25;;;;;20.47;40.65;102394.28;5080459;27;52925;-46
2021/12/14 01:11:37;;;;;;;;;3.50;3.50;;;;;20.45;40.52;102396.38;5085860;27;51362;-45
2021/12/14 01:14:27;;;;;;;;;3.75;3.75;;;;;20.44;40.29;102390.03;5074421;27;51157;-48
2021/12/14 01:17:12;;;;;;;;;6.00;4.50;;;;;20.43;40.73;102396.56;5088774;27;51223;-47
2021/12/14 01:19:41;;;;;;;;;4.00;4.00;;;;;20.43;40.58;102398.47;5075553;27;52271;-45
2021/12/14 01:25:03;;;;;;;;;3.25;3.25;;;;;20.40;40.70;102404.28;5088779;27;51076;-43
2021/12/14 01:27:58;;;;;;;;;3.00;2.50;;;;;20.38;40.65;102420.13;5089962;27;51210;-44
2021/12/14 01:30:58;;;;;;;;;5.75;4.25;;;;;20.39;40.68;102419.09;5085530;27;52735;-47
2021/12/14 01:33:25;;;;;;;;;3.00;3.00;;;;;20.38;40.71;102417.38;5081910;27;51158;-43
2021/12/14 01:35:52;;;;;;;;;4.75;3.25;;;;;20.36;40.96;102427.72;5089714;27;51195;-45
2021/12/14 01:40:56;;;;;;;;;4.00;2.50;;;;;20.34;41.04;102433.41;5085872;27;50981;-46
2021/12/14 01:43:35;;;;;;;;;3.75;3.00;;;;;20.33;40.51;102445.47;5084479;27;51955;-41
2021/12/14 01:46:13;;;;;;;;;3.50;2.75;;;;;20.33;40.55;102450.13;5084474;27;51194;-45
2021/12/14 01:48:40;;;;;;;;;2.00;2.00;;;;;20.32;40.86;102443.75;5087742;27;50944;-45
2021/12/14 01:51:08;;;;;;;;;5.00;4.50;;;;;20.31;40.69;102442.00;5085471;27;51018;-45
2021/12/14 01:53:36;;;;;;;;;3.25;3.00;;;;;20.31;40.89;102441.16;5085322;27;50977;-45
2021/12/14 01:56:06;;;;;;;;;2.25;2.00;;;;;20.28;40.66;102445.13;5085841;27;51201;-47
2021/12/14 01:58:45;;;;;;;;;2.25;2.25;;;;;20.29;40.77;102457.84;5083336;27;51940;-43
2021/12/14 02:01:24;;;;;;;;;2.50;2.00;;;;;20.28;40.55;102458.91;5085297;27;51039;-45
2021/12/14 02:03:49;;;;;;;;;1.00;1.00;;;;;20.26;40.83;102466.50;5085324;27;51182;-42
2021/12/14 02:06:22;;;;;;;;;3.50;3.50;;;;;20.26;40.71;102465.63;5088403;27;51097;-42
2021/12/14 02:08:55;;;;;;;;;2.00;2.00;;;;;20.25;41.03;102472.19;5080394;27;51072;-42
2021/12/14 02:11:21;;;;;;;;;3.00;3.00;;;;;20.25;40.87;102480.44;5110544;27;51822;-45
2021/12/14 02:13:48;;;;;;;;;3.00;3.00;;;;;20.25;40.85;102494.19;5083857;27;51045;-43
2021/12/14 02:16:18;;;;;;;;;3.00;3.00;;;;;20.23;40.81;102502.63;5084974;27;51079;-47
2021/12/14 02:18:47;;;;;;;;;4.25;3.00;;;;;20.24;40.50;102509.00;5094559;27;51047;-46
2021/12/14 02:21:14;;;;;;;;;4.50;3.00;;;;;20.23;40.56;102510.88;5086022;27;51544;-43
2021/12/14 02:23:45;;;;;;;;;1.50;1.50;;;;;20.22;40.64;102509.19;5079353;27;51314;-43
2021/12/14 02:26:16;;;;;;;;;2.50;2.50;;;;;20.20;40.80;102500.22;5080825;27;51160;-44
2021/12/14 02:28:42;;;;;;;;;2.00;2.00;;;;;20.19;40.98;102493.00;5073553;27;50965;-42
2021/12/14 02:31:11;;;;;;;;;3.00;3.00;;;;;20.20;40.83;102475.47;5083105;27;51639;-43
2021/12/14 02:33:40;;;;;;;;;2.50;2.50;;;;;20.19;40.91;102468.25;5102089;27;51192;-47
2021/12/14 02:36:09;;;;;;;;;2.00;2.00;;;;;20.17;41.14;102457.44;5090921;27;51084;-45
2021/12/14 02:38:43;;;;;;;;;3.00;2.00;;;;;20.17;40.80;102443.66;5080826;27;51078;-44
2021/12/14 02:41:09;;;;;;;;;2.25;2.25;;;;;20.16;40.94;102444.72;5076624;27;51644;-45
2021/12/14 02:43:48;;;;;;;;;1.25;1.25;;;;;20.15;40.82;102443.00;5079070;27;51080;-45
2021/12/14 02:46:19;;;;;;;;;2.00;2.00;;;;;20.14;41.09;102449.53;5085451;27;51405;-46
2021/12/14 02:48:52;;;;;;;;;2.25;2.00;;;;;20.13;40.78;102447.84;5079194;27;51216;-48
2021/12/14 02:51:51;;;;;;;;;2.25;1.75;;;;;20.12;40.84;102446.13;5087313;27;51862;-45
2021/12/14 02:54:29;;;;;;;;;4.00;2.00;;;;;20.11;41.26;102446.28;5079521;27;50998;-43
2021/12/14 02:57:03;;;;;;;;;1.75;1.75;;;;;20.10;41.11;102448.16;5079084;27;50924;-44
2021/12/14 02:59:32;;;;;;;;;2.00;2.00;;;;;20.11;40.88;102457.28;5078671;27;51258;-42
2021/12/14 03:02:04;;;;;;;;;3.25;2.25;;;;;20.09;41.25;102451.97;5085024;27;51060;-45
2021/12/14 03:04:31;;;;;;;;;2.00;2.00;;;;;20.08;41.20;102439.25;5085184;27;51111;-42
2021/12/14 03:06:59;;;;;;;;;2.00;2.00;;;;;20.07;41.28;102432.03;5095255;27;50849;-42
2021/12/14 03:10:17;;;;;;;;;1.25;1.25;;;;;20.08;41.15;102428.25;5077701;27;50897;-42
2021/12/14 03:12:46;;;;;;;;;3.25;2.25;;;;;20.07;41.15;102425.69;5076452;27;51870;-44
2021/12/14 03:15:19;;;;;;;;;2.25;2.25;;;;;20.06;40.92;102423.97;5080538;27;51181;-48
2021/12/14 03:17:48;;;;;;;;;2.75;2.75;;;;;20.04;40.91;102412.31;5087050;27;51033;-43
2021/12/14 03:20:21;;;;;;;;;3.00;3.00;;;;;20.04;40.95;102410.41;5084605;27;51225;-46
2021/12/14 03:22:51;;;;;;;;;3.00;2.00;;;;;20.03;41.10;102411.44;5099174;27;52867;-43
2021/12/14 03:25:19;;;;;;;;;2.75;2.00;;;;;20.02;41.13;102418.00;5079036;27;51433;-43
2021/12/14 03:27:46;;;;;;;;;4.75;3.00;;;;;20.02;41.15;102429.00;5091441;27;51447;-42
2021/12/14 03:30:33;;;;;;;;;4.50;3.00;;;;;20.02;40.95;102419.88;5088721;27;51302;-43
2021/12/14 03:33:18;;;;;;;;;2.00;2.00;;;;;20.01;41.31;102421.78;5087327;27;51789;-45
2021/12/14 03:35:59;;;;;;;;;2.25;2.25;;;;;20.01;41.08;102420.88;5085492;27;51686;-47
2021/12/14 03:38:34;;;;;;;;;4.00;2.50;;;;;19.99;41.13;102421.06;5084816;27;51180;-43
2021/12/14 03:41:10;;;;;;;;;3.00;3.00;;;;;19.99;40.96;102404.56;5087685;27;51018;-45
2021/12/14 03:43:37;;;;;;;;;2.75;2.75;;;;;19.98;40.53;102400.13;5085167;27;51836;-45
2021/12/14 03:46:03;;;;;;;;;2.75;2.75;;;;;19.97;40.87;102395.66;5094065;27;51102;-44
2021/12/14 03:48:30;;;;;;;;;4.50;2.75;;;;;19.97;41.06;102400.31;5087113;27;51086;-47
2021/12/14 03:50:56;;;;;;;;;2.00;2.00;;;;;19.97;41.10;102405.81;5080384;27;51154;-46
2021/12/14 03:53:22;;;;;;;;;3.75;3.75;;;;;19.98;41.02;102407.50;5078847;27;51953;-44
2021/12/14 03:55:52;;;;;;;;;2.00;2.00;;;;;19.96;41.11;102413.19;5082418;27;51209;-45
2021/12/14 03:58:21;;;;;;;;;3.50;3.50;;;;;19.97;40.98;102405.81;5081797;27;51286;-47
2021/12/14 04:00:54;;;;;;;;;3.25;3.00;;;;;19.95;41.31;102397.72;5076217;27;51127;-45
2021/12/14 04:03:21;;;;;;;;;2.25;2.25;;;;;19.96;41.10;102396.69;5088874;27;51951;-49
2021/12/14 04:05:48;;;;;;;;;2.25;2.25;;;;;19.94;41.20;102387.78;5078797;27;50865;-45
2021/12/14 04:08:15;;;;;;;;;2.75;2.75;;;;;19.94;41.16;102387.78;5094146;27;51127;-45
2021/12/14 04:10:43;;;;;;;;;4.00;4.00;;;;;19.93;41.15;102387.97;5074130;27;51435;-49
2021/12/14 04:13:15;;;;;;;;;3.00;3.00;;;;;19.91;41.24;102387.28;5082286;27;52351;-47
2021/12/14 04:15:41;;;;;;;;;4.00;3.25;;;;;19.91;41.10;102382.66;5077732;27;51115;-46
2021/12/14 04:18:07;;;;;;;;;4.00;4.00;;;;;19.91;41.06;102390.91;5077784;27;51185;-45
2021/12/14 04:20:37;;;;;;;;;4.00;4.00;;;;;19.91;41.19;102387.28;5076897;27;51114;-45
2021/12/14 04:23:08;;;;;;;;;3.00;3.00;;;;;19.89;41.02;102396.56;5086510;27;50912;-45
2021/12/14 04:25:35;;;;;;;;;4.00;4.00;;;;;19.88;41.38;102399.50;5086293;27;50867;-48
2021/12/14 04:28:06;;;;;;;;;4.75;3.00;;;;;19.88;41.07;102416.00;5087402;27;50973;-46
2021/12/14 04:30:31;;;;;;;;;3.50;3.00;;;;;19.87;41.02;102428.03;5083164;27;51271;-45
2021/12/14 04:33:00;;;;;;;;;3.50;2.00;;;;;19.88;41.19;102410.50;5082375;27;52107;-48
2021/12/14 04:35:26;;;;;;;;;4.00;4.00;;;;;19.86;40.92;102413.41;5084071;27;51529;-49
2021/12/14 04:37:56;;;;;;;;;2.00;2.00;;;;;19.86;41.01;102416.19;5086022;27;51024;-45
2021/12/14 04:54:52;;;;;;;;;2.00;2.00;;;;;19.80;41.48;102411.41;5044458;28;52249;-47
2021/12/14 04:57:36;;;;;;;;;3.50;3.00;;;;;19.80;41.23;102413.28;5045198;28;51077;-47
2021/12/14 05:00:20;;;;;;;;;2.25;2.25;;;;;19.78;41.02;102407.09;5059742;27;51162;-45
2021/12/14 05:02:46;;;;;;;;;3.75;3.75;;;;;19.78;41.39;102416.22;5090098;27;51172;-44
2021/12/14 05:05:18;;;;;;;;;3.25;3.25;;;;;19.78;41.18;102418.09;5081330;27;52902;-46
2021/12/14 05:10:58;;;;;;;;;4.00;2.50;;;;;19.76;41.11;102411.94;5087975;27;51059;-45
2021/12/14 05:13:54;;;;;;;;;2.00;2.00;;;;;19.76;41.34;102418.28;5085405;27;51101;-48
2021/12/14 05:16:26;;;;;;;;;4.25;3.50;;;;;19.76;40.93;102411.94;5080498;27;51196;-44
2021/12/14 05:18:56;;;;;;;;;3.00;3.00;;;;;19.74;41.10;102416.75;5086573;27;51069;-46
2021/12/14 05:21:27;;;;;;;;;4.25;3.00;;;;;19.75;41.27;102423.97;5082392;27;50958;-44
2021/12/14 05:23:53;;;;;;;;;3.75;3.75;;;;;19.74;41.28;102422.25;5086244;27;51162;-45
2021/12/14 05:26:19;;;;;;;;;3.00;3.00;;;;;19.73;41.02;102423.31;5088789;27;52480;-44
2021/12/14 05:28:45;;;;;;;;;2.00;2.00;;;;;19.73;40.93;102421.41;5088017;27;51131;-49
2021/12/14 05:31:11;;;;;;;;;1.25;1.25;;;;;19.74;41.29;102416.75;5078461;27;51163;-47
2021/12/14 05:33:38;;;;;;;;;5.25;3.00;;;;;19.72;41.28;102419.69;5088194;27;51191;-45
2021/12/14 05:36:08;;;;;;;;;4.00;4.00;;;;;19.71;40.90;102417.13;5101626;27;51079;-44
2021/12/14 05:43:51;;;;;;;;;3.75;3.75;;;;;19.70;41.26;102426.41;5081072;27;50929;-48
2021/12/14 05:46:22;;;;;;;;;6.00;2.00;;;;;19.69;41.23;102428.28;5078444;27;51723;-45
2021/12/14 05:48:48;;;;;;;;;3.75;3.75;;;;;19.69;40.93;102421.94;5081073;27;51346;-46
2021/12/14 05:51:13;;;;;;;;;3.25;2.00;;;;;19.69;41.32;102424.69;5075672;27;50913;-45
2021/12/14 05:53:42;;;;;;;;;4.50;4.50;;;;;19.68;41.18;102425.72;5078202;27;51218;-43
2021/12/14 05:56:14;;;;;;;;;3.00;2.75;;;;;19.68;41.36;102422.97;5078474;27;51638;-44
2021/12/14 05:58:40;;;;;;;;;4.25;4.00;;;;;19.66;41.21;102430.53;5084412;27;51372;-45
2021/12/14 06:01:11;;;;;;;;;3.25;3.25;;;;;19.67;41.06;102437.75;5088407;27;51225;-47
2021/12/14 06:03:45;;;;;;;;;4.00;3.75;;;;;19.65;41.17;102437.94;5086714;27;51971;-44
2021/12/14 06:06:17;;;;;;;;;3.00;3.00;;;;;19.64;41.35;102438.13;5087366;27;52007;-47
2021/12/14 06:08:42;;;;;;;;;4.25;3.00;;;;;19.64;41.24;102443.63;5080712;27;51539;-47
2021/12/14 06:11:09;;;;;;;;;4.75;3.00;;;;;19.63;41.32;102445.50;5079011;27;51142;-43
2021/12/14 06:13:43;;;;;;;;;5.50;5.50;;;;;19.63;40.86;102459.25;5074212;27;51052;-43
2021/12/14 06:16:27;;;;;;;;;11.25;10.75;;;;;19.60;40.22;102470.63;5084974;27;51209;-43
2021/12/14 06:18:53;;;;;;;;;11.50;10.75;;;;;19.56;39.95;102481.09;5101664;27;51283;-44
2021/12/14 06:21:32;;;;;;;;;14.00;11.25;;;;;19.50;39.68;102475.44;5083843;27;51088;-46
2021/12/14 06:24:06;;;;;;;;;19.25;12.25;;;;;19.45;39.44;102481.44;5083683;27;51085;-44
2021/12/14 06:26:45;;;;;;;;;10.50;10.50;;;;;19.40;39.83;102494.00;5088965;27;51109;-44
2021/12/14 06:29:35;;;;;;;;;11.75;11.75;;;;;19.33;39.51;102491.94;5085077;27;51321;-44
2021/12/14 06:32:29;;;;;;;;;14.75;11.75;;;;;19.29;39.38;102479.59;5069614;27;51062;-44
2021/12/14 06:35:00;;;;;;;;;12.00;10.00;;;;;19.29;39.37;102478.75;5071950;27;51161;-46
2021/12/14 06:40:09;;;;;;;;;8.00;7.25;;;;;19.42;39.65;102484.53;5080786;27;51005;-48
2021/12/14 06:42:41;;;;;;;;;8.25;6.75;;;;;19.50;39.97;102489.16;5092083;27;51206;-46
2021/12/14 06:45:12;;;;;;;;;9.75;6.00;;;;;19.60;40.02;102504.47;5089934;27;51039;-51
2021/12/14 06:47:40;;;;;;;;;5.00;5.00;;;;;19.70;39.96;102515.25;5087261;27;51097;-43
2021/12/14 06:50:12;;;;;;;;;4.25;4.00;;;;;19.78;40.26;102514.34;5106502;27;51036;-45
2021/12/14 06:52:38;;;;;;;;;7.75;6.00;;;;;19.86;40.38;102503.31;5080559;27;52142;-46
2021/12/14 06:55:07;;;;;;;;;5.00;4.25;;;;;19.93;40.67;102497.97;5101302;27;51009;-42
2021/12/14 06:57:33;;;;;;;;;7.50;5.50;;;;;20.00;40.47;102505.31;5104047;27;52043;-43
2021/12/14 06:59:59;;;;;;;;;3.75;3.75;;;;;20.06;40.61;102501.00;5074632;27;51015;-42
2021/12/14 07:02:26;;;;;;;;;5.00;4.25;;;;;20.11;41.02;102504.94;5078004;27;51214;-45
2021/12/14 07:04:52;;;;;;;;;4.50;4.00;;;;;20.18;40.97;102503.16;5081218;27;51041;-43
2021/12/14 07:07:21;;;;;;;;;2.75;2.75;;;;;20.25;41.21;102510.69;5082472;27;51985;-43
2021/12/14 07:09:50;;;;;;;;;4.75;4.00;;;;;20.31;41.21;102513.56;5075315;27;51098;-43
2021/12/14 07:12:20;;;;;;;;;4.00;4.00;;;;;20.37;41.26;102512.00;5079505;27;51063;-44
2021/12/14 07:14:48;;;;;;;;;7.75;3.50;;;;;20.41;41.32;102508.69;5074686;27;51145;-44
2021/12/14 07:17:25;;;;;;;;;5.00;5.00;;;;;20.48;41.72;102506.09;5077004;27;51066;-43
2021/12/14 07:19:54;;;;;;;;;3.00;3.00;;;;;20.53;41.38;102505.53;5078266;27;50814;-45
2021/12/14 07:22:22;;;;;;;;;3.25;3.25;;;;;20.58;41.34;102503.97;5074299;27;51131;-43
2021/12/14 07:24:59;;;;;;;;;7.00;4.50;;;;;20.63;41.47;102501.50;5110423;27;51084;-46
2021/12/14 07:27:30;;;;;;;;;4.25;4.25;;;;;20.67;41.14;102502.88;5075462;27;50926;-44
2021/12/14 07:30:23;;;;;;;;;2.00;2.00;;;;;20.68;41.50;102514.75;5085813;27;51052;-43
2021/12/14 07:32:56;;;;;;;;;7.00;5.25;;;;;20.68;40.95;102509.25;5071310;27;51206;-44
2021/12/14 07:35:27;;;;;;;;;4.00;4.00;;;;;20.67;41.67;102513.03;5084366;27;51071;-42
2021/12/14 07:37:58;;;;;;;;;7.50;4.25;;;;;20.67;41.51;102513.03;5077870;27;51694;-45
2021/12/14 07:40:33;;;;;;;;;5.50;5.00;;;;;20.67;41.15;102515.78;5073981;27;51066;-45
2021/12/14 07:43:28;;;;;;;;;6.00;6.00;;;;;20.73;41.20;102520.53;5074031;27;52476;-44
2021/12/14 07:45:54;;;;;;;;;6.00;6.00;;;;;20.80;41.04;102518.78;5075603;27;51321;-44
2021/12/14 07:48:37;;;;;;;;;8.25;5.50;;;;;20.85;41.60;102518.25;5074062;27;52604;-43
2021/12/14 07:51:03;;;;;;;;;6.00;4.25;;;;;20.87;41.49;102528.03;5073608;27;51183;-43
2021/12/14 07:53:52;;;;;;;;;5.25;5.25;;;;;20.89;41.87;102527.84;5069147;27;51190;-43
2021/12/14 07:56:41;;;;;;;;;6.25;3.25;;;;;20.89;41.31;102542.47;5076284;27;50953;-44
2021/12/14 07:59:41;;;;;;;;;6.00;5.00;;;;;20.88;41.61;102537.16;5072080;27;51791;-43
2021/12/14 08:02:16;;;;;;;;;7.25;7.25;;;;;20.84;41.60;102536.66;5074891;27;51161;-44
2021/12/14 08:04:48;;;;;;;;;6.50;5.75;;;;;20.78;41.63;102548.41;5083295;27;51153;-45
2021/12/14 08:07:32;;;;;;;;;9.25;7.00;;;;;20.73;41.20;102539.81;5083549;27;51168;-44
2021/12/14 08:10:07;;;;;;;;;6.25;6.25;;;;;20.70;41.71;102534.69;5088601;27;51822;-45
2021/12/14 08:12:40;;;;;;;;;6.00;5.75;;;;;20.65;41.54;102542.66;5081544;27;51181;-44
2021/12/14 08:15:15;;;;;;;;;9.00;7.25;;;;;20.61;41.57;102557.81;5081194;27;51135;-44
2021/12/14 08:17:43;;;;;;;;;7.00;6.00;;;;;20.59;41.73;102557.16;5073397;27;51134;-47
2021/12/14 08:20:13;;;;;;;;;5.75;5.75;;;;;20.55;41.40;102564.91;5079259;27;51121;-44
2021/12/14 08:22:41;;;;;;;;;7.25;5.50;;;;;20.53;41.34;102567.00;5087234;27;51482;-44
2021/12/14 08:25:09;;;;;;;;;7.75;7.00;;;;;20.50;41.25;102564.59;5083460;27;51249;-48
2021/12/14 08:27:35;;;;;;;;;6.25;6.25;;;;;20.47;41.74;102573.22;5091125;27;51309;-47
2021/12/14 08:30:06;;;;;;;;;8.00;7.00;;;;;20.44;41.41;102571.69;5068352;27;50978;-44
2021/12/14 08:32:39;;;;;;;;;6.25;4.50;;;;;20.39;41.80;102565.81;5080791;27;51026;-43
2021/12/14 08:35:09;;;;;;;;;8.00;7.00;;;;;20.36;41.85;102570.84;5089891;27;51072;-44
2021/12/14 08:37:45;;;;;;;;;5.25;5.25;;;;;20.33;41.74;102568.47;5087329;27;51267;-44
2021/12/14 08:40:35;;;;;;;;;13.00;9.00;;;;;20.31;41.75;102570.50;5080992;27;51831;-46
2021/12/14 08:43:12;;;;;;;;;5.75;4.00;;;;;20.28;42.04;102563.47;5074159;27;51839;-44
2021/12/14 08:46:15;;;;;;;;;6.25;5.50;;;;;20.26;41.56;102567.44;5085708;27;51163;-46
2021/12/14 08:48:47;;;;;;;;;7.75;7.75;;;;;20.23;41.38;102581.56;5081242;27;51146;-43
2021/12/14 08:51:20;;;;;;;;;7.00;6.75;;;;;20.22;41.60;102575.22;5086534;27;52050;-43
2021/12/14 08:53:53;;;;;;;;;7.50;7.50;;;;;20.19;41.58;102581.91;5081436;27;51202;-46
2021/12/14 08:56:19;;;;;;;;;5.75;5.75;;;;;20.18;41.70;102584.84;5083840;27;51485;-48
2021/12/14 08:58:46;;;;;;;;;7.00;7.00;;;;;20.13;41.79;102587.28;5084156;27;50953;-44
2021/12/14 09:01:16;;;;;;;;;9.25;7.00;;;;;20.12;42.07;102591.09;5072508;27;51012;-45
2021/12/14 09:03:50;;;;;;;;;9.25;6.75;;;;;20.11;41.94;102584.72;5072365;27;51434;-42
2021/12/14 09:06:19;;;;;;;;;8.00;7.00;;;;;20.10;41.72;102582.13;5074124;27;51222;-44
2021/12/14 09:08:47;;;;;;;;;8.00;6.25;;;;;20.08;41.73;102578.69;5083517;27;51191;-44
2021/12/14 09:11:17;;;;;;;;;7.75;5.75;;;;;20.07;41.50;102575.09;5083488;27;51482;-45
2021/12/14 09:13:44;;;;;;;;;7.25;6.25;;;;;20.05;41.53;102574.41;5100993;27;51645;-45
2021/12/14 09:16:15;;;;;;;;;8.50;6.75;;;;;20.04;41.50;102569.09;5078338;27;51276;-49
2021/12/14 09:18:46;;;;;;;;;8.00;8.00;;;;;20.03;41.93;102576.50;5077311;27;51171;-44
2021/12/14 09:21:35;;;;;;;;;6.25;6.25;;;;;20.01;41.72;102570.31;5076030;27;51890;-47
2021/12/14 09:24:05;;;;;;;;;6.00;6.00;;;;;19.99;41.63;102569.63;5076367;27;51055;-45
2021/12/14 09:26:35;;;;;;;;;7.25;7.00;;;;;19.98;41.82;102587.16;5078443;27;50924;-49
2021/12/14 09:29:02;;;;;;;;;8.50;6.75;;;;;19.96;41.87;102585.63;5084434;27;51075;-45
2021/12/14 09:31:32;;;;;;;;;7.25;7.25;;;;;19.96;41.83;102588.38;5100349;27;51936;-45
2021/12/14 09:33:59;;;;;;;;;10.00;9.00;;;;;19.95;41.72;102578.41;5084055;27;51421;-44
2021/12/14 09:36:28;;;;;;;;;10.00;7.75;;;;;19.92;42.09;102585.13;5083264;27;51075;-44
2021/12/14 09:38:59;;;;;;;;;7.50;6.00;;;;;19.92;41.85;102589.78;5100545;27;52270;-45
2021/12/14 09:41:31;;;;;;;;;8.25;6.25;;;;;19.90;41.65;102584.44;5083738;27;51006;-45
2021/12/14 09:43:58;;;;;;;;;10.00;7.50;;;;;19.88;41.50;102590.09;5081804;27;51400;-45
2021/12/14 09:46:24;;;;;;;;;7.50;7.00;;;;;19.87;41.84;102593.91;5087621;27;51094;-44
2021/12/14 09:48:54;;;;;;;;;6.50;4.75;;;;;19.86;41.84;102597.69;5087994;27;51216;-47
2021/12/14 09:51:29;;;;;;;;;8.75;8.75;;;;;19.86;41.97;102599.56;5078417;27;51942;-44
2021/12/14 09:53:58;;;;;;;;;8.75;8.25;;;;;19.85;41.98;102603.38;5090765;27;51009;-45
2021/12/14 09:56:27;;;;;;;;;7.50;7.50;;;;;19.83;41.91;102608.19;5084333;27;50927;-45
2021/12/14 09:58:59;;;;;;;;;7.00;6.75;;;;;19.82;41.90;102603.72;5088655;27;51149;-46
2021/12/14 10:01:34;;;;;;;;;10.50;6.50;;;;;19.83;41.68;102605.44;5102873;27;54420;-46
2021/12/14 10:04:06;;;;;;;;;4.75;4.75;;;;;19.80;42.08;102605.75;5084042;27;51038;-46
2021/12/14 10:06:33;;;;;;;;;7.00;7.00;;;;;19.80;41.84;102605.75;5088070;27;51084;-43
2021/12/14 10:09:05;;;;;;;;;8.25;7.50;;;;;19.79;41.64;102607.66;5088927;27;51178;-45
2021/12/14 10:11:48;;;;;;;;;8.50;7.00;;;;;19.79;41.61;102604.06;5078600;27;51077;-44
2021/12/14 10:14:15;;;;;;;;;7.00;7.00;;;;;19.76;41.87;102599.78;5089765;27;51467;-44
2021/12/14 10:16:42;;;;;;;;;9.75;8.50;;;;;19.76;41.70;102608.00;5083978;27;51206;-45
2021/12/14 10:19:13;;;;;;;;;10.75;10.75;;;;;19.74;41.79;102601.84;5080294;27;51068;-45
2021/12/14 10:21:47;;;;;;;;;8.00;8.00;;;;;19.74;41.96;102603.72;5089248;27;53062;-45
2021/12/14 10:24:13;;;;;;;;;13.25;10.75;;;;;19.74;41.79;102600.97;5107869;27;51137;-47
2021/12/14 10:26:44;;;;;;;;;10.00;8.75;;;;;19.73;42.05;102600.13;5088298;27;51125;-47
2021/12/14 10:29:10;;;;;;;;;6.75;6.75;;;;;19.72;41.84;102609.41;5092375;27;51153;-47
2021/12/14 10:31:44;;;;;;;;;9.50;7.75;;;;;19.72;42.18;102605.81;5088869;27;51868;-46
2021/12/14 10:34:14;;;;;;;;;9.25;8.50;;;;;19.70;41.98;102606.00;5090144;27;51000;-46
2021/12/14 10:36:45;;;;;;;;;12.00;9.25;;;;;19.70;42.13;102613.38;5110015;27;51043;-46
2021/12/14 10:44:36;;;;;;;;;8.00;7.25;;;;;19.67;42.01;102608.22;5082994;27;50878;-45
2021/12/14 10:47:03;;;;;;;;;6.25;5.50;;;;;19.67;42.13;102608.22;5087329;27;51019;-46
2021/12/14 10:49:29;;;;;;;;;11.50;8.75;;;;;19.65;41.99;102616.63;5080765;27;51123;-46
2021/12/14 10:52:04;;;;;;;;;6.25;6.25;;;;;19.64;42.26;102606.66;5082611;27;51050;-44
2021/12/14 10:54:30;;;;;;;;;9.00;8.25;;;;;19.67;41.64;102610.97;5089422;27;51033;-44
2021/12/14 10:56:57;;;;;;;;;7.50;7.00;;;;;19.70;41.70;102606.00;5085946;27;50877;-44
2021/12/14 10:59:29;;;;;;;;;9.25;8.00;;;;;19.77;41.61;102598.72;5097659;27;51128;-44
2021/12/14 11:01:56;;;;;;;;;8.00;7.75;;;;;19.87;40.95;102606.78;5099167;27;50893;-44
2021/12/14 11:04:38;;;;;;;;;9.00;9.00;;;;;19.97;41.18;102612.94;5114418;27;51276;-45
2021/12/14 11:07:34;;;;;;;;;7.00;6.25;;;;;20.04;41.57;102613.97;5078203;27;50956;-46
2021/12/14 11:10:15;;;;;;;;;10.00;6.25;;;;;20.12;41.34;102611.19;5089654;27;51893;-49
2021/12/14 11:12:45;;;;;;;;;11.75;6.75;;;;;20.19;41.46;102609.44;5087666;27;52280;-43
2021/12/14 11:15:14;;;;;;;;;9.25;8.00;;;;;20.25;41.76;102607.00;5086913;27;51566;-47
2021/12/14 11:20:38;;;;;;;;;9.50;7.00;;;;;20.40;41.88;102599.72;5075074;27;51027;-44
2021/12/14 11:23:19;;;;;;;;;8.25;6.00;;;;;20.46;41.50;102596.28;5085894;27;51992;-45
2021/12/14 11:25:50;;;;;;;;;8.75;8.75;;;;;20.54;41.93;102604.50;5077335;27;51865;-53
2021/12/14 11:28:38;;;;;;;;;8.25;7.75;;;;;20.60;41.76;102600.16;5076959;27;50923;-44
2021/12/14 11:31:15;;;;;;;;;9.00;7.50;;;;;20.66;41.54;102594.78;5086181;27;51233;-46
2021/12/14 11:33:54;;;;;;;;;10.00;7.50;;;;;20.74;41.86;102600.25;5085713;27;51402;-44
2021/12/14 11:36:32;;;;;;;;;7.00;6.25;;;;;20.83;42.22;102605.69;5086337;27;50920;-49
2021/12/14 11:39:25;;;;;;;;;10.75;7.00;;;;;20.91;41.68;102602.88;5075112;27;52458;-45
2021/12/14 11:41:55;;;;;;;;;5.50;5.50;;;;;20.95;41.77;102599.59;5079314;27;51145;-47
2021/12/14 11:44:45;;;;;;;;;9.00;8.00;;;;;20.96;41.79;102593.03;5090606;27;51092;-48
2021/12/14 11:47:41;;;;;;;;;7.75;7.25;;;;;20.94;42.16;102594.25;5086229;27;51034;-50
2021/12/14 11:50:18;;;;;;;;;8.00;6.75;;;;;20.89;41.72;102583.78;5085393;27;51224;-47
2021/12/14 11:53:09;;;;;;;;;6.00;6.00;;;;;20.88;41.50;102581.22;5082737;27;51147;-50
2021/12/14 11:55:42;;;;;;;;;7.00;7.00;;;;;20.90;41.95;102579.97;5070110;27;51336;-47
2021/12/14 11:58:25;;;;;;;;;9.25;7.75;;;;;20.94;41.57;102573.06;5078702;27;51380;-47
2021/12/14 12:00:56;;;;;;;;;7.50;7.50;;;;;21.03;41.23;102568.34;5076684;27;51170;-45
2021/12/14 12:03:43;;;;;;;;;8.00;6.00;;;;;21.10;41.43;102569.34;5056704;28;51166;-47
2021/12/14 12:09:35;;;;;;;;;8.25;7.75;;;;;21.21;41.72;102568.88;5077974;27;51334;-47
2021/12/14 12:12:03;;;;;;;;;8.00;7.00;;;;;21.19;42.12;102568.22;5076458;27;51278;-46
2021/12/14 12:14:47;;;;;;;;;8.50;7.00;;;;;21.16;42.17;102562.22;5076800;27;51095;-44
2021/12/14 12:17:40;;;;;;;;;10.50;9.50;;;;;21.12;41.87;102561.72;5079908;27;52086;-44
2021/12/14 12:20:30;;;;;;;;;13.00;9.00;;;;;21.12;41.87;102569.13;5085097;27;51006;-46
2021/12/14 12:23:03;;;;;;;;;7.50;7.50;;;;;21.09;41.44;102559.34;5071463;27;50940;-44
2021/12/14 12:25:30;;;;;;;;;9.75;8.00;;;;;21.07;41.87;102569.72;5083218;27;50923;-45
2021/12/14 12:28:00;;;;;;;;;12.00;8.00;;;;;21.03;41.92;102565.59;5094394;27;50884;-46
2021/12/14 12:30:46;;;;;;;;;15.00;12.25;;;;;20.98;41.84;102563.41;5098417;27;50919;-44
2021/12/14 12:33:30;;;;;;;;;10.00;10.00;;;;;20.93;41.68;102570.50;5098552;27;51038;-48
2021/12/14 12:36:02;;;;;;;;;10.25;9.00;;;;;20.91;41.93;102573.44;5083434;27;52027;-44
2021/12/14 12:38:40;;;;;;;;;10.00;10.00;;;;;20.87;41.98;102569.34;5073309;27;51835;-45